createdAt,value
2018-06-19T00:02:19.459Z,47.30
2018-06-19T00:08:27.593Z,47.30
2018-06-19T00:11:35.849Z,47.30
2018-06-19T00:14:45.375Z,47.20
2018-06-19T00:17:53.219Z,47.10
2018-06-19T00:21:02.475Z,46.50
2018-06-19T00:24:11.527Z,47.00
2018-06-19T00:27:21.408Z,47.10
2018-06-19T00:30:30.768Z,47.30
2018-06-19T00:33:39.934Z,47.30
2018-06-19T00:36:49.473Z,47.40
2018-06-19T00:40:00.441Z,47.40
2018-06-19T00:43:09.427Z,47.50
2018-06-19T00:46:18.551Z,47.50
2018-06-19T00:49:28.538Z,47.60
2018-06-19T00:52:36.748Z,47.50
2018-06-19T00:55:43.815Z,47.80
2018-06-19T00:58:52.814Z,47.70
2018-06-19T01:05:02.366Z,47.60
2018-06-19T01:08:12.301Z,47.80
2018-06-19T01:11:21.129Z,47.80
2018-06-19T01:14:30.819Z,47.70
2018-06-19T01:17:39.979Z,47.80
2018-06-19T01:20:50.176Z,47.80
2018-06-19T01:23:59.545Z,47.80
2018-06-19T01:27:08.177Z,47.80
2018-06-19T01:30:16.627Z,47.60
2018-06-19T01:33:25.499Z,47.80
2018-06-19T01:36:35.333Z,47.80
2018-06-19T01:39:44.390Z,47.80
2018-06-19T01:42:55.213Z,47.90
2018-06-19T01:46:03.779Z,47.80
2018-06-19T01:49:12.511Z,47.80
2018-06-19T01:52:23.555Z,48.00
2018-06-19T01:55:32.259Z,48.10
2018-06-19T01:58:41.413Z,48.00
2018-06-19T02:04:52.519Z,48.20
2018-06-19T02:08:01.895Z,48.20
2018-06-19T02:11:12.456Z,48.10
2018-06-19T02:14:22.078Z,48.10
2018-06-19T02:20:31.825Z,48.20
2018-06-19T02:23:40.041Z,48.20
2018-06-19T02:26:49.116Z,48.30
2018-06-19T02:29:58.584Z,48.20
2018-06-19T02:33:07.091Z,48.20
2018-06-19T02:36:16.983Z,48.40
2018-06-19T02:39:26.587Z,48.40
2018-06-19T02:42:35.087Z,48.40
2018-06-19T02:45:44.549Z,48.40
2018-06-19T02:48:53.403Z,48.30
2018-06-19T02:52:03.509Z,48.40
2018-06-19T02:55:11.827Z,48.30
2018-06-19T02:58:20.967Z,48.40
2018-06-19T03:04:30.092Z,48.20
2018-06-19T03:07:39.897Z,48.50
2018-06-19T03:10:49.823Z,48.50
2018-06-19T03:13:58.763Z,48.60
2018-06-19T03:17:08.703Z,48.40
2018-06-19T03:20:16.749Z,48.50
2018-06-19T03:23:26.133Z,48.60
2018-06-19T03:26:34.291Z,48.70
2018-06-19T03:29:43.136Z,48.70
2018-06-19T03:32:52.519Z,48.60
2018-06-19T03:36:00.716Z,48.70
2018-06-19T03:39:09.097Z,48.70
2018-06-19T03:42:20.073Z,48.60
2018-06-19T03:45:30.823Z,48.50
2018-06-19T03:48:40.476Z,48.60
2018-06-19T03:51:49.783Z,48.50
2018-06-19T03:55:01.189Z,48.60
2018-06-19T03:58:10.621Z,48.60
2018-06-19T04:01:20.144Z,48.70
2018-06-19T04:04:31.067Z,48.60
2018-06-19T04:07:39.887Z,48.70
2018-06-19T04:10:48.995Z,48.80
2018-06-19T04:14:00.517Z,48.80
2018-06-19T04:17:09.031Z,48.80
2018-06-19T04:20:19.351Z,48.90
2018-06-19T04:23:29.114Z,48.90
2018-06-19T04:26:39.335Z,48.90
2018-06-19T04:29:48.072Z,49.00
2018-06-19T04:32:56.227Z,49.00
2018-06-19T04:36:06.596Z,49.00
2018-06-19T04:39:16.379Z,49.00
2018-06-19T04:45:26.754Z,49.00
2018-06-19T04:51:35.668Z,49.10
2018-06-19T04:54:43.178Z,49.00
2018-06-19T04:57:52.830Z,49.00
2018-06-19T05:01:05.121Z,49.00
2018-06-19T05:04:14.695Z,49.20
2018-06-19T05:07:22.821Z,49.10
2018-06-19T05:13:32.611Z,49.30
2018-06-19T05:16:40.741Z,49.20
2018-06-19T05:19:48.991Z,49.40
2018-06-19T05:22:56.883Z,49.40
2018-06-19T05:26:06.255Z,49.40
2018-06-19T05:29:14.785Z,49.40
2018-06-19T05:32:24.153Z,49.50
2018-06-19T05:35:34.875Z,49.30
2018-06-19T05:38:42.881Z,49.30
2018-06-19T05:41:52.049Z,49.30
2018-06-19T05:45:01.405Z,49.40
2018-06-19T05:48:09.828Z,49.30
2018-06-19T05:51:21.191Z,49.30
2018-06-19T05:54:31.483Z,49.70
2018-06-19T05:57:39.195Z,49.60
2018-06-19T06:00:48.081Z,49.60
2018-06-19T06:03:57.515Z,49.70
2018-06-19T06:10:10.267Z,49.60
2018-06-19T06:13:21.205Z,49.60
2018-06-19T06:16:30.390Z,49.70
2018-06-19T06:19:40.018Z,49.70
2018-06-19T06:22:49.660Z,49.80
2018-06-19T06:26:00.025Z,49.80
2018-06-19T06:29:09.551Z,49.90
2018-06-19T06:32:21.216Z,49.90
2018-06-19T06:35:30.832Z,49.80
2018-06-19T06:38:39.682Z,50.00
2018-06-19T06:41:49.562Z,50.00
2018-06-19T06:44:58.506Z,50.00
2018-06-19T06:48:09.540Z,50.30
2018-06-19T06:51:18.806Z,50.00
2018-06-19T06:55:51.639Z,50.10
2018-06-19T07:02:15.162Z,50.40
2018-06-19T07:05:24.632Z,50.10
2018-06-19T07:11:32.972Z,50.20
2018-06-19T07:14:41.338Z,50.50
2018-06-19T07:17:48.309Z,50.40
2018-06-19T07:20:57.778Z,50.50
2018-06-19T07:24:07.514Z,50.40
2018-06-19T07:27:18.086Z,50.50
2018-06-19T07:30:27.856Z,50.30
2018-06-19T07:33:38.579Z,50.40
2018-06-19T07:36:47.073Z,50.20
2018-06-19T07:39:54.956Z,50.20
2018-06-19T07:43:03.478Z,50.30
2018-06-19T07:49:17.089Z,50.40
2018-06-19T07:52:28.505Z,50.40
2018-06-19T07:55:37.975Z,50.50
2018-06-19T07:58:46.687Z,50.50
2018-06-19T08:01:57.345Z,50.60
2018-06-19T08:05:05.440Z,50.50
2018-06-19T08:11:17.799Z,51.10
2018-06-19T08:14:27.554Z,50.70
2018-06-19T08:17:37.574Z,50.80
2018-06-19T08:20:47.046Z,50.80
2018-06-19T08:23:56.622Z,50.80
2018-06-19T08:27:07.045Z,50.80
2018-06-19T08:30:15.704Z,50.70
2018-06-19T08:33:24.509Z,50.40
2018-06-19T08:36:33.410Z,50.50
2018-06-19T08:39:42.199Z,50.60
2018-06-19T08:42:52.295Z,50.80
2018-06-19T08:46:01.398Z,50.90
2018-06-19T08:52:10.118Z,50.90
2018-06-19T08:55:21.264Z,51.00
2018-06-19T08:58:30.866Z,50.90
2018-06-19T09:04:53.267Z,51.00
2018-06-19T09:08:02.618Z,51.00
2018-06-19T09:11:15.429Z,51.00
2018-06-19T09:14:23.644Z,50.90
2018-06-19T09:17:31.959Z,51.10
2018-06-19T09:20:41.336Z,50.90
2018-06-19T09:23:50.758Z,51.00
2018-06-19T09:26:59.093Z,50.90
2018-06-19T09:30:09.016Z,50.80
2018-06-19T09:33:17.393Z,50.60
2018-06-19T09:36:27.100Z,50.70
2018-06-19T09:39:36.803Z,50.80
2018-06-19T09:42:45.554Z,50.90
2018-06-19T09:45:55.016Z,50.80
2018-06-19T09:49:04.265Z,51.00
2018-06-19T09:52:13.237Z,50.80
2018-06-19T09:55:21.295Z,50.80
2018-06-19T09:58:29.538Z,50.70
2018-06-19T10:01:38.484Z,50.70
2018-06-19T10:04:46.221Z,50.80
2018-06-19T10:07:55.865Z,50.90
2018-06-19T10:11:03.311Z,50.80
2018-06-19T10:14:12.307Z,50.70
2018-06-19T10:17:20.699Z,50.80
2018-06-19T10:20:29.336Z,51.10
2018-06-19T10:23:38.072Z,51.10
2018-06-19T10:26:48.292Z,51.30
2018-06-19T10:32:57.096Z,51.40
2018-06-19T10:36:05.461Z,51.30
2018-06-19T10:39:13.321Z,51.40
2018-06-19T10:42:21.985Z,51.40
2018-06-19T10:48:33.899Z,51.60
2018-06-19T10:51:43.397Z,51.70
2018-06-19T10:54:51.130Z,51.50
2018-06-19T11:00:59.246Z,51.20
2018-06-19T11:04:07.250Z,51.10
2018-06-19T11:07:16.304Z,51.10
2018-06-19T11:10:24.102Z,51.00
2018-06-19T11:13:33.210Z,51.00
2018-06-19T11:19:43.317Z,51.00
2018-06-19T11:22:52.998Z,51.00
2018-06-19T11:26:02.374Z,51.20
2018-06-19T11:29:12.323Z,51.20
2018-06-19T11:35:22.726Z,51.30
2018-06-19T11:38:31.589Z,51.90
2018-06-19T11:41:40.656Z,51.40
2018-06-19T11:44:49.886Z,51.30
2018-06-19T11:48:00.236Z,51.30
2018-06-19T11:51:08.718Z,51.30
2018-06-19T11:54:18.564Z,51.20
2018-06-19T11:57:28.282Z,51.10
2018-06-19T12:00:39.010Z,51.00
2018-06-19T12:03:48.058Z,51.00
2018-06-19T12:06:57.429Z,51.00
2018-06-19T12:10:06.277Z,51.00
2018-06-19T12:13:16.012Z,51.10
2018-06-19T12:16:24.905Z,51.20
2018-06-19T12:19:34.256Z,51.20
2018-06-19T12:22:44.610Z,51.20
2018-06-19T12:25:53.936Z,51.10
2018-06-19T12:29:03.922Z,50.90
2018-06-19T12:32:12.353Z,51.00
2018-06-19T12:35:22.030Z,50.90
2018-06-19T12:38:31.708Z,50.90
2018-06-19T12:41:40.345Z,50.80
2018-06-19T12:44:49.648Z,50.60
2018-06-19T12:47:57.428Z,50.60
2018-06-19T12:52:17.330Z,50.60
2018-06-19T12:55:35.092Z,50.80
2018-06-19T12:58:45.296Z,50.90
2018-06-19T13:01:53.895Z,50.80
2018-06-19T13:05:11.861Z,50.90
2018-06-19T13:08:19.868Z,50.90
2018-06-19T13:14:38.596Z,50.80
2018-06-19T13:17:57.260Z,50.80
2018-06-19T13:21:08.826Z,50.90
2018-06-19T13:24:18.306Z,51.90
2018-06-19T13:30:38.747Z,51.50
2018-06-19T13:33:49.728Z,50.80
2018-06-19T13:36:57.801Z,50.80
2018-06-19T13:41:11.896Z,50.70
2018-06-19T13:44:30.702Z,50.70
2018-06-19T13:50:42.806Z,50.70
2018-06-19T13:53:50.370Z,50.60
2018-06-19T14:01:06.755Z,50.70
2018-06-19T14:04:16.208Z,50.70
2018-06-19T14:07:25.571Z,50.60
2018-06-19T14:10:44.964Z,50.60
2018-06-19T14:13:52.820Z,50.60
2018-06-19T14:17:02.350Z,50.60
2018-06-19T14:20:10.466Z,50.60
2018-06-19T14:23:21.392Z,50.70
2018-06-19T14:26:30.396Z,50.50
2018-06-19T14:29:38.240Z,50.60
2018-06-19T14:32:47.308Z,50.50
2018-06-19T14:35:55.619Z,50.40
2018-06-19T14:42:05.682Z,50.50
2018-06-19T14:45:13.896Z,50.50
2018-06-19T14:48:23.036Z,50.70
2018-06-19T14:51:32.188Z,50.60
2018-06-19T14:54:41.884Z,50.60
2018-06-19T14:57:50.412Z,50.70
2018-06-19T15:00:58.825Z,50.70
2018-06-19T15:04:08.702Z,50.60
2018-06-19T15:07:20.807Z,50.70
2018-06-19T15:10:30.169Z,50.60
2018-06-19T15:13:39.956Z,50.70
2018-06-19T15:16:48.466Z,50.80
2018-06-19T15:19:56.395Z,50.90
2018-06-19T15:23:06.393Z,50.50
2018-06-19T15:26:16.164Z,50.40
2018-06-19T15:29:24.856Z,50.50
2018-06-19T15:32:34.012Z,50.40
2018-06-19T15:35:43.216Z,50.40
2018-06-19T15:38:53.283Z,50.40
2018-06-19T15:42:04.981Z,50.40
2018-06-19T15:45:14.278Z,50.40
2018-06-19T15:48:23.716Z,50.40
2018-06-19T15:51:34.220Z,50.40
2018-06-19T15:54:44.531Z,50.30
2018-06-19T15:57:53.787Z,50.20
2018-06-19T16:04:02.699Z,50.20
2018-06-19T16:07:12.690Z,50.20
2018-06-19T16:10:21.526Z,50.00
2018-06-19T16:16:44.130Z,49.80
2018-06-19T16:19:53.495Z,49.90
2018-06-19T16:23:03.127Z,50.00
2018-06-19T16:26:11.672Z,49.70
2018-06-19T16:29:21.581Z,49.70
2018-06-19T16:32:29.923Z,49.90
2018-06-19T16:35:39.486Z,50.00
2018-06-19T16:38:47.822Z,50.00
2018-06-19T16:41:57.802Z,50.00
2018-06-19T16:48:06.300Z,50.00
2018-06-19T16:51:17.648Z,49.90
2018-06-19T16:54:26.285Z,49.80
2018-06-19T16:57:33.870Z,50.00
2018-06-19T17:00:43.753Z,49.90
2018-06-19T17:03:53.854Z,49.90
2018-06-19T17:07:03.942Z,49.10
2018-06-19T17:10:12.584Z,49.00
2018-06-19T17:13:23.096Z,49.00
2018-06-19T17:16:32.580Z,49.00
2018-06-19T17:19:40.518Z,49.70
2018-06-19T17:22:51.751Z,48.80
2018-06-19T17:29:03.940Z,48.40
2018-06-19T17:32:13.652Z,48.40
2018-06-19T17:35:23.386Z,48.40
2018-06-19T17:38:31.968Z,48.20
2018-06-19T17:41:41.428Z,48.20
2018-06-19T17:44:52.574Z,48.10
2018-06-19T17:48:01.612Z,48.10
2018-06-19T17:51:11.542Z,47.90
2018-06-19T17:57:34.522Z,47.70
2018-06-19T18:00:43.598Z,47.60
2018-06-19T18:03:54.290Z,47.60
2018-06-19T18:07:02.621Z,47.60
2018-06-19T18:10:11.530Z,47.40
2018-06-19T18:13:19.054Z,47.20
2018-06-19T18:16:32.717Z,47.30
2018-06-19T18:19:42.592Z,47.20
2018-06-19T18:22:51.221Z,47.10
2018-06-19T18:26:00.277Z,47.00
2018-06-19T18:29:09.120Z,47.10
2018-06-19T18:32:17.382Z,47.00
2018-06-19T18:35:26.799Z,47.00
2018-06-19T18:38:37.844Z,47.00
2018-06-19T18:41:46.798Z,47.00
2018-06-19T18:44:56.158Z,47.00
2018-06-19T18:48:05.979Z,46.90
2018-06-19T18:51:14.818Z,46.90
2018-06-19T18:54:23.524Z,46.70
2018-06-19T18:57:32.157Z,46.60
2018-06-19T19:00:40.057Z,46.50
2018-06-19T19:03:47.911Z,46.50
2018-06-19T19:06:57.328Z,46.60
2018-06-19T19:10:12.188Z,46.60
2018-06-19T19:13:20.252Z,46.60
2018-06-19T19:16:33.228Z,46.40
2018-06-19T19:19:42.142Z,46.30
2018-06-19T19:22:50.584Z,46.30
2018-06-19T19:25:58.541Z,46.20
2018-06-19T19:29:11.750Z,46.40
2018-06-19T19:32:20.816Z,46.20
2018-06-19T19:35:29.465Z,46.20
2018-06-19T19:38:43.395Z,46.10
2018-06-19T19:41:52.902Z,46.20
2018-06-19T19:45:00.576Z,46.20
2018-06-19T19:48:13.703Z,46.20
2018-06-19T19:51:23.991Z,46.10
2018-06-19T19:54:32.562Z,46.00
2018-06-19T19:57:46.288Z,46.00
2018-06-19T20:00:55.028Z,46.20
2018-06-19T20:04:02.623Z,46.10
2018-06-19T20:07:11.038Z,46.10
2018-06-19T20:10:19.050Z,46.10
2018-06-19T20:13:27.306Z,46.00
2018-06-19T20:16:35.690Z,46.10
2018-06-19T20:19:44.534Z,46.10
2018-06-19T20:22:53.892Z,46.20
2018-06-19T20:26:01.368Z,46.10
2018-06-19T20:29:10.019Z,46.00
2018-06-19T20:32:18.865Z,45.90
2018-06-19T20:35:28.206Z,45.80
2018-06-19T20:38:39.429Z,45.80
2018-06-19T20:41:49.564Z,45.90
2018-06-19T20:44:57.174Z,45.90
2018-06-19T20:48:06.219Z,45.90
2018-06-19T20:51:14.646Z,45.90
2018-06-19T20:54:23.335Z,45.80
2018-06-19T20:57:30.655Z,45.80
2018-06-19T21:00:40.542Z,45.90
2018-06-19T21:03:50.945Z,45.90
2018-06-19T21:07:00.508Z,45.80
2018-06-19T21:10:09.049Z,45.80
2018-06-19T21:13:17.472Z,45.60
2018-06-19T21:16:25.200Z,45.70
2018-06-19T21:19:33.399Z,45.60
2018-06-19T21:22:40.855Z,45.60
2018-06-19T21:25:49.523Z,45.60
2018-06-19T21:28:58.879Z,45.60
2018-06-19T21:35:06.950Z,45.60
2018-06-19T21:38:15.378Z,45.60
2018-06-19T21:41:24.220Z,45.60
2018-06-19T21:44:33.717Z,45.60
2018-06-19T21:47:44.308Z,45.60
2018-06-19T21:50:51.587Z,45.50
2018-06-19T21:53:59.911Z,45.50
2018-06-19T21:57:08.024Z,45.50
2018-06-19T22:00:16.514Z,45.30
2018-06-19T22:03:26.128Z,45.40
2018-06-19T22:06:34.755Z,45.40
2018-06-19T22:09:42.969Z,45.50
2018-06-19T22:12:51.821Z,45.50
2018-06-19T22:16:00.724Z,45.50
2018-06-19T22:19:08.670Z,45.50
2018-06-19T22:22:16.775Z,45.60
2018-06-19T22:25:26.138Z,45.40
2018-06-19T22:28:34.572Z,45.30
2018-06-19T22:31:42.688Z,45.30
2018-06-19T22:34:51.838Z,45.20
2018-06-19T22:38:02.127Z,45.20
2018-06-19T22:41:09.884Z,45.40
2018-06-19T22:44:18.998Z,45.30
2018-06-19T22:47:25.864Z,45.40
2018-06-19T22:50:35.220Z,45.50
2018-06-19T22:53:45.376Z,45.50
2018-06-19T22:56:53.843Z,45.50
2018-06-19T23:00:03.194Z,45.30
2018-06-19T23:03:17.080Z,45.30
2018-06-19T23:06:26.736Z,45.20
2018-06-19T23:09:36.428Z,45.20
2018-06-19T23:12:46.070Z,45.20
2018-06-19T23:15:55.574Z,45.20
2018-06-19T23:19:03.639Z,45.20
2018-06-19T23:22:22.539Z,45.30
2018-06-19T23:25:30.433Z,45.30
2018-06-19T23:28:38.544Z,45.20
2018-06-19T23:34:46.340Z,45.20
2018-06-19T23:37:56.021Z,45.20
2018-06-19T23:41:03.216Z,45.20
2018-06-19T23:44:12.873Z,45.40
2018-06-19T23:47:23.202Z,45.80
2018-06-19T23:50:33.996Z,46.00
2018-06-19T23:53:41.059Z,46.20
2018-06-19T23:56:49.908Z,46.40
2018-06-19T23:59:59.777Z,46.60
